createdAt,value
2023-02-17T00:02:16.636Z,72.48
2023-02-17T00:04:44.566Z,73.25
2023-02-17T00:07:12.763Z,73.46
2023-02-17T00:09:40.729Z,73.60
2023-02-17T00:12:08.592Z,72.59
2023-02-17T00:14:36.775Z,72.24
2023-02-17T00:17:04.644Z,72.14
2023-02-17T00:19:32.712Z,72.10
2023-02-17T00:22:01.904Z,72.16
2023-02-17T00:24:31.214Z,72.18
2023-02-17T00:26:59.451Z,71.78
2023-02-17T00:29:27.656Z,71.89
2023-02-17T00:31:55.913Z,72.78
2023-02-17T00:34:24.825Z,72.55
2023-02-17T00:36:53.314Z,72.28
2023-02-17T00:39:21.289Z,73.08
2023-02-17T00:41:50.147Z,73.11
2023-02-17T00:44:19.474Z,72.99
2023-02-17T00:46:47.552Z,73.07
2023-02-17T00:49:17.664Z,73.00
2023-02-17T00:51:46.250Z,72.92
2023-02-17T00:54:14.418Z,73.05
2023-02-17T00:56:43.419Z,73.22
2023-02-17T00:59:11.588Z,72.99
2023-02-17T01:01:39.706Z,72.96
2023-02-17T01:04:07.838Z,72.89
2023-02-17T01:06:36.736Z,72.74
2023-02-17T01:09:06.024Z,72.75
2023-02-17T01:11:35.227Z,72.79
2023-02-17T01:14:06.416Z,73.28
2023-02-17T01:16:36.284Z,73.59
2023-02-17T01:19:05.482Z,74.12
2023-02-17T01:21:33.962Z,73.98
2023-02-17T01:24:04.078Z,73.68
2023-02-17T01:26:33.390Z,73.20
2023-02-17T01:29:03.918Z,73.09
2023-02-17T01:31:32.251Z,73.06
2023-02-17T01:34:01.512Z,73.07
2023-02-17T01:36:29.992Z,73.11
2023-02-17T01:38:58.145Z,73.32
2023-02-17T01:41:27.247Z,73.41
2023-02-17T01:44:05.879Z,73.07
2023-02-17T01:46:34.706Z,72.97
2023-02-17T01:49:12.850Z,73.35
2023-02-17T01:51:41.328Z,73.19
2023-02-17T01:54:13.087Z,72.84
2023-02-17T01:56:43.831Z,72.44
2023-02-17T01:59:16.481Z,72.44
2023-02-17T02:01:45.048Z,72.37
2023-02-17T02:04:15.079Z,72.76
2023-02-17T02:06:43.999Z,72.66
2023-02-17T02:09:36.745Z,72.62
2023-02-17T02:12:16.899Z,72.80
2023-02-17T02:14:46.708Z,72.93
2023-02-17T02:17:17.752Z,73.13
2023-02-17T02:19:54.943Z,73.45
2023-02-17T02:22:32.061Z,73.37
2023-02-17T02:25:03.078Z,73.10
2023-02-17T02:27:50.206Z,72.87
2023-02-17T02:30:37.205Z,72.68
2023-02-17T02:33:09.163Z,72.70
2023-02-17T02:35:49.423Z,72.71
2023-02-17T02:38:17.403Z,72.90
2023-02-17T02:40:50.386Z,73.40
2023-02-17T02:43:18.453Z,73.47
2023-02-17T02:45:46.433Z,73.15
2023-02-17T02:48:14.394Z,73.07
2023-02-17T02:50:45.283Z,73.07
2023-02-17T02:53:16.268Z,73.14
2023-02-17T02:55:51.645Z,73.42
2023-02-17T02:58:19.989Z,73.60
2023-02-17T03:00:54.163Z,73.93
2023-02-17T03:03:45.831Z,73.56
2023-02-17T03:06:31.387Z,73.16
2023-02-17T03:09:04.598Z,73.03
2023-02-17T03:11:32.612Z,72.91
2023-02-17T03:14:01.868Z,72.82
2023-02-17T03:16:30.397Z,72.54
2023-02-17T03:18:58.626Z,72.51
2023-02-17T03:21:29.875Z,72.42
2023-02-17T03:23:57.948Z,72.60
2023-02-17T03:26:25.762Z,72.08
2023-02-17T03:28:53.789Z,71.93
2023-02-17T03:31:21.846Z,71.69
2023-02-17T03:33:50.129Z,71.53
2023-02-17T03:36:18.073Z,71.37
2023-02-17T03:38:45.987Z,72.03
2023-02-17T03:41:13.942Z,71.89
2023-02-17T03:43:41.903Z,71.52
2023-02-17T03:46:17.187Z,71.06
2023-02-17T03:48:45.194Z,70.92
2023-02-17T03:51:15.954Z,70.63
2023-02-17T03:53:44.743Z,70.83
2023-02-17T03:56:13.433Z,70.90
2023-02-17T03:58:41.591Z,71.10
2023-02-17T04:01:10.704Z,71.18
2023-02-17T04:03:39.132Z,71.22
2023-02-17T04:06:08.007Z,71.28
2023-02-17T04:08:36.850Z,71.55
2023-02-17T04:11:05.975Z,71.80
2023-02-17T04:13:34.125Z,72.00
2023-02-17T04:16:02.390Z,71.93
2023-02-17T04:18:31.812Z,72.28
2023-02-17T04:20:59.780Z,72.42
2023-02-17T04:23:27.840Z,72.61
2023-02-17T04:25:55.817Z,72.63
2023-02-17T04:28:23.780Z,72.64
2023-02-17T04:30:51.796Z,73.07
2023-02-17T04:33:19.815Z,73.55
2023-02-17T04:35:47.903Z,73.54
2023-02-17T04:38:15.966Z,73.46
2023-02-17T04:40:43.930Z,73.23
2023-02-17T04:43:11.896Z,73.07
2023-02-17T04:45:39.873Z,73.20
2023-02-17T04:48:08.048Z,73.18
2023-02-17T04:50:36.009Z,73.67
2023-02-17T04:53:03.987Z,73.79
2023-02-17T04:55:33.592Z,73.88
2023-02-17T04:58:01.561Z,73.72
2023-02-17T05:00:29.403Z,72.97
2023-02-17T05:02:57.371Z,72.57
2023-02-17T05:05:26.161Z,72.36
2023-02-17T05:07:54.258Z,72.42
2023-02-17T05:10:23.975Z,72.67
2023-02-17T05:12:52.577Z,72.87
2023-02-17T05:15:20.517Z,73.10
2023-02-17T05:17:48.489Z,73.03
2023-02-17T05:20:16.458Z,73.18
2023-02-17T05:22:44.427Z,73.34
2023-02-17T05:25:12.403Z,73.40
2023-02-17T05:27:40.393Z,73.56
2023-02-17T05:30:08.554Z,73.48
2023-02-17T05:32:36.509Z,74.04
2023-02-17T05:35:04.579Z,74.06
2023-02-17T05:37:32.561Z,73.87
2023-02-17T05:40:00.627Z,74.13
2023-02-17T05:42:29.096Z,74.29
2023-02-17T05:44:57.288Z,74.36
2023-02-17T05:47:27.356Z,74.66
2023-02-17T05:49:55.879Z,74.54
2023-02-17T05:52:23.854Z,74.36
2023-02-17T05:54:52.225Z,74.26
2023-02-17T05:57:20.403Z,74.09
2023-02-17T05:59:48.366Z,74.23
2023-02-17T06:02:16.343Z,74.42
2023-02-17T06:04:44.588Z,74.19
2023-02-17T06:07:12.692Z,74.34
2023-02-17T06:09:40.566Z,74.25
2023-02-17T06:12:08.524Z,74.07
2023-02-17T06:14:36.502Z,74.15
2023-02-17T06:17:04.389Z,73.91
2023-02-17T06:19:32.640Z,73.69
2023-02-17T06:22:00.614Z,73.31
2023-02-17T06:24:28.574Z,73.32
2023-02-17T06:26:56.647Z,72.95
2023-02-17T06:29:24.662Z,72.82
2023-02-17T06:31:52.707Z,72.97
2023-02-17T06:34:20.963Z,72.88
2023-02-17T06:36:49.040Z,72.92
2023-02-17T06:39:17.010Z,72.89
2023-02-17T06:41:45.163Z,72.64
2023-02-17T06:44:13.146Z,72.24
2023-02-17T06:46:41.116Z,72.34
2023-02-17T06:49:09.082Z,72.47
2023-02-17T06:51:37.359Z,72.38
2023-02-17T06:54:05.427Z,72.22
2023-02-17T06:56:33.398Z,71.87
2023-02-17T06:59:01.776Z,71.69
2023-02-17T07:01:30.154Z,71.38
2023-02-17T07:03:58.275Z,71.47
2023-02-17T07:06:26.718Z,71.19
2023-02-17T07:08:54.884Z,70.99
2023-02-17T07:11:23.269Z,70.73
2023-02-17T07:13:51.260Z,70.40
2023-02-17T07:16:19.184Z,69.93
2023-02-17T07:18:47.222Z,69.47
2023-02-17T07:21:15.139Z,68.98
2023-02-17T07:23:43.109Z,69.03
2023-02-17T07:26:12.106Z,69.13
2023-02-17T07:28:41.111Z,68.88
2023-02-17T07:31:13.182Z,68.59
2023-02-17T07:33:41.846Z,68.13
2023-02-17T07:36:11.200Z,67.44
2023-02-17T07:38:39.739Z,67.38
2023-02-17T07:41:09.142Z,67.09
2023-02-17T07:43:37.322Z,66.78
2023-02-17T07:46:05.970Z,66.76
2023-02-17T07:48:34.685Z,66.76
2023-02-17T07:51:10.429Z,67.08
2023-02-17T07:53:38.703Z,66.33
2023-02-17T07:56:07.866Z,65.91
2023-02-17T07:58:37.616Z,65.46
2023-02-17T08:01:13.181Z,65.20
2023-02-17T08:03:41.485Z,64.84
2023-02-17T08:06:10.706Z,64.79
2023-02-17T08:08:57.337Z,64.63
2023-02-17T08:11:45.405Z,64.78
2023-02-17T08:14:14.269Z,65.54
2023-02-17T08:16:42.264Z,66.30
2023-02-17T08:19:10.219Z,66.20
2023-02-17T08:21:38.488Z,66.57
2023-02-17T08:24:07.117Z,66.81
2023-02-17T08:26:35.189Z,67.15
2023-02-17T08:29:03.659Z,67.23
2023-02-17T08:31:33.384Z,67.11
2023-02-17T08:34:02.947Z,67.07
2023-02-17T08:36:31.522Z,66.63
2023-02-17T08:38:59.498Z,66.41
2023-02-17T08:41:29.765Z,66.21
2023-02-17T08:43:59.459Z,66.23
2023-02-17T08:46:28.276Z,66.45
2023-02-17T08:48:56.722Z,66.71
2023-02-17T08:51:26.316Z,66.55
2023-02-17T08:53:55.686Z,66.40
2023-02-17T08:56:24.501Z,66.05
2023-02-17T08:58:52.932Z,65.84
2023-02-17T09:01:21.163Z,66.16
2023-02-17T09:03:50.065Z,66.01
2023-02-17T09:06:18.650Z,65.51
2023-02-17T09:08:46.701Z,65.19
2023-02-17T09:11:17.217Z,64.91
2023-02-17T09:13:45.657Z,64.57
2023-02-17T09:16:13.852Z,64.48
2023-02-17T09:18:42.189Z,64.83
2023-02-17T09:21:11.620Z,64.96
2023-02-17T09:23:40.374Z,64.80
2023-02-17T09:26:10.337Z,64.77
2023-02-17T09:28:38.998Z,64.57
2023-02-17T09:31:14.325Z,64.61
2023-02-17T09:33:43.197Z,64.61
2023-02-17T09:36:13.516Z,64.29
2023-02-17T09:38:42.148Z,63.89
2023-02-17T09:41:18.288Z,63.71
2023-02-17T09:43:46.230Z,63.49
2023-02-17T09:46:36.011Z,62.11
2023-02-17T09:49:09.004Z,60.76
2023-02-17T09:51:45.259Z,59.65
2023-02-17T09:54:13.237Z,58.61
2023-02-17T09:56:43.165Z,56.03
2023-02-17T09:59:16.657Z,54.07
2023-02-17T10:01:46.367Z,52.56
2023-02-17T10:04:17.484Z,50.69
2023-02-17T10:06:47.199Z,49.69
2023-02-17T10:09:37.304Z,47.80
2023-02-17T10:12:14.082Z,45.63
2023-02-17T10:14:46.349Z,44.54
2023-02-17T10:17:34.595Z,42.93
2023-02-17T10:20:11.451Z,41.07
2023-02-17T10:22:42.931Z,40.02
2023-02-17T10:25:15.432Z,39.03
2023-02-17T10:27:47.589Z,38.60
2023-02-17T10:30:23.660Z,37.45
2023-02-17T10:33:10.377Z,36.72
2023-02-17T10:36:10.553Z,36.22
2023-02-17T10:38:47.714Z,35.16
2023-02-17T10:41:17.950Z,34.36
2023-02-17T10:43:46.322Z,34.19
2023-02-17T10:46:16.805Z,34.10
2023-02-17T10:48:47.279Z,34.16
2023-02-17T10:51:16.676Z,33.40
2023-02-17T10:53:47.405Z,32.74
2023-02-17T10:56:18.458Z,32.67
2023-02-17T10:58:46.425Z,31.94
2023-02-17T11:01:14.392Z,31.52
2023-02-17T11:03:42.614Z,30.99
2023-02-17T11:06:16.622Z,31.55
2023-02-17T11:08:50.841Z,30.40
2023-02-17T11:11:18.765Z,30.27
2023-02-17T11:14:00.148Z,30.18
2023-02-17T11:16:34.110Z,30.37
2023-02-17T11:19:02.744Z,30.81
2023-02-17T11:21:30.934Z,31.10
2023-02-17T11:24:01.238Z,32.10
2023-02-17T11:26:31.358Z,31.79
2023-02-17T11:29:16.425Z,31.60
2023-02-17T11:31:54.516Z,31.49
2023-02-17T11:34:24.345Z,31.31
2023-02-17T11:37:10.955Z,31.44
2023-02-17T11:39:43.267Z,31.92
2023-02-17T11:42:24.706Z,32.17
2023-02-17T11:44:54.119Z,32.25
2023-02-17T11:47:40.684Z,32.54
2023-02-17T11:50:08.589Z,32.91
2023-02-17T11:52:36.454Z,32.23
2023-02-17T11:55:13.965Z,32.50
2023-02-17T11:57:47.857Z,32.45
2023-02-17T12:00:16.349Z,32.10
2023-02-17T12:03:15.219Z,32.36
2023-02-17T12:06:02.040Z,31.50
2023-02-17T12:08:35.846Z,31.23
2023-02-17T12:11:15.704Z,30.87
2023-02-17T12:14:04.873Z,31.62
2023-02-17T12:16:45.166Z,33.41
2023-02-17T12:19:31.927Z,35.33
2023-02-17T12:21:59.950Z,36.07
2023-02-17T12:24:47.328Z,36.90
2023-02-17T12:27:18.061Z,38.47
2023-02-17T12:29:45.990Z,39.58
2023-02-17T12:32:20.697Z,40.90
2023-02-17T12:34:53.226Z,42.64
2023-02-17T12:37:23.561Z,43.72
2023-02-17T12:40:11.789Z,44.84
2023-02-17T12:42:43.762Z,46.00
2023-02-17T12:45:14.431Z,46.73
2023-02-17T12:47:42.367Z,46.59
2023-02-17T12:50:21.482Z,46.65
2023-02-17T12:52:52.326Z,46.95
2023-02-17T12:55:26.930Z,46.86
2023-02-17T12:58:07.426Z,46.83
2023-02-17T13:00:38.147Z,47.10
2023-02-17T13:03:06.447Z,47.49
2023-02-17T13:05:40.439Z,47.53
2023-02-17T13:08:28.992Z,47.85
2023-02-17T13:11:01.777Z,48.20
2023-02-17T13:13:31.272Z,47.96
2023-02-17T13:16:07.826Z,47.92
2023-02-17T13:18:37.556Z,48.33
2023-02-17T13:21:17.501Z,48.17
2023-02-17T13:23:48.113Z,48.45
2023-02-17T13:26:24.892Z,48.55
2023-02-17T13:28:53.821Z,48.75
2023-02-17T13:31:26.769Z,48.91
2023-02-17T13:33:56.609Z,48.87
2023-02-17T13:36:27.271Z,48.86
2023-02-17T13:39:18.237Z,48.81
2023-02-17T13:41:47.856Z,48.85
2023-02-17T13:44:38.656Z,49.02
2023-02-17T13:47:12.921Z,49.16
2023-02-17T13:49:40.939Z,49.38
2023-02-17T13:52:28.987Z,49.88
2023-02-17T13:54:58.491Z,49.87
2023-02-17T13:57:30.549Z,50.15
2023-02-17T14:00:09.648Z,50.61
2023-02-17T14:02:47.476Z,50.69
2023-02-17T14:05:20.052Z,51.23
2023-02-17T14:07:49.254Z,51.63
2023-02-17T14:10:19.076Z,51.59
2023-02-17T14:12:49.083Z,51.40
2023-02-17T14:15:18.287Z,52.22
2023-02-17T14:17:46.553Z,52.36
2023-02-17T14:20:44.029Z,52.88
2023-02-17T14:23:12.925Z,53.22
2023-02-17T14:25:42.003Z,52.97
2023-02-17T14:28:20.718Z,53.22
2023-02-17T14:30:49.470Z,53.14
2023-02-17T14:33:18.008Z,52.99
2023-02-17T14:36:00.193Z,53.13
2023-02-17T14:38:32.219Z,53.46
2023-02-17T14:41:01.334Z,54.04
2023-02-17T14:43:29.247Z,54.30
2023-02-17T14:45:57.599Z,54.61
2023-02-17T14:48:27.665Z,54.50
2023-02-17T14:50:56.928Z,54.69
2023-02-17T14:53:26.988Z,54.50
2023-02-17T14:56:04.643Z,54.42
2023-02-17T14:58:32.886Z,55.44
2023-02-17T15:01:00.789Z,55.49
2023-02-17T15:03:28.750Z,55.56
2023-02-17T15:05:56.693Z,56.13
2023-02-17T15:08:30.075Z,56.45
2023-02-17T15:10:58.028Z,56.71
2023-02-17T15:13:26.600Z,56.14
2023-02-17T15:15:54.522Z,56.15
2023-02-17T15:18:22.445Z,57.06
2023-02-17T15:20:51.466Z,57.51
2023-02-17T15:23:20.957Z,58.03
2023-02-17T15:25:48.981Z,57.40
2023-02-17T15:28:18.489Z,57.87
2023-02-17T15:30:48.898Z,58.07
2023-02-17T15:33:17.466Z,58.12
2023-02-17T15:35:46.210Z,58.24
2023-02-17T15:38:14.248Z,56.74
2023-02-17T15:40:42.437Z,58.50
2023-02-17T15:43:13.675Z,58.84
2023-02-17T15:45:41.841Z,57.30
2023-02-17T15:48:18.628Z,56.84
2023-02-17T15:50:46.551Z,58.51
2023-02-17T15:53:14.442Z,59.58
2023-02-17T15:55:42.644Z,60.26
2023-02-17T15:58:14.286Z,60.71
2023-02-17T16:00:43.699Z,60.66
2023-02-17T16:03:13.733Z,61.03
2023-02-17T16:05:41.864Z,61.25
2023-02-17T16:08:09.849Z,61.19
2023-02-17T16:10:40.316Z,61.16
2023-02-17T16:13:12.844Z,61.19
2023-02-17T16:15:41.441Z,61.16
2023-02-17T16:18:22.807Z,61.46
2023-02-17T16:20:51.292Z,60.93
2023-02-17T16:23:19.262Z,57.88
2023-02-17T16:25:48.197Z,57.06
2023-02-17T16:28:20.219Z,58.80
2023-02-17T16:30:49.563Z,60.37
2023-02-17T16:33:18.238Z,62.34
2023-02-17T16:35:46.396Z,61.97
2023-02-17T16:38:22.977Z,60.97
2023-02-17T16:40:52.470Z,62.47
2023-02-17T16:43:21.761Z,62.90
2023-02-17T16:45:52.640Z,63.30
2023-02-17T16:48:23.229Z,63.14
2023-02-17T16:50:51.503Z,63.23
2023-02-17T16:53:20.089Z,63.32
2023-02-17T16:55:48.570Z,63.15
2023-02-17T16:58:20.531Z,63.19
2023-02-17T17:00:49.621Z,63.24
2023-02-17T17:03:18.009Z,63.30
2023-02-17T17:05:46.029Z,63.50
2023-02-17T17:08:16.292Z,63.71
2023-02-17T17:10:45.393Z,63.80
2023-02-17T17:13:13.766Z,64.32
2023-02-17T17:15:43.277Z,64.18
2023-02-17T17:18:18.311Z,63.87
2023-02-17T17:20:46.274Z,63.22
2023-02-17T17:23:15.131Z,64.11
2023-02-17T17:25:45.284Z,64.36
2023-02-17T17:28:13.776Z,64.57
2023-02-17T17:30:41.749Z,64.56
2023-02-17T17:33:09.781Z,64.75
2023-02-17T17:35:37.846Z,64.95
2023-02-17T17:38:05.963Z,64.78
2023-02-17T17:40:48.576Z,64.55
2023-02-17T17:43:20.733Z,64.87
2023-02-17T17:45:49.467Z,65.17
2023-02-17T17:48:17.796Z,65.10
2023-02-17T17:50:46.174Z,65.51
2023-02-17T17:53:14.144Z,65.60
2023-02-17T17:55:42.114Z,65.24
2023-02-17T17:58:10.293Z,65.18
2023-02-17T18:00:38.362Z,63.67
2023-02-17T18:03:06.227Z,62.57
2023-02-17T18:05:35.616Z,64.27
2023-02-17T18:08:03.817Z,62.35
2023-02-17T18:10:32.592Z,62.87
2023-02-17T18:13:00.478Z,62.42
2023-02-17T18:15:28.417Z,63.74
2023-02-17T18:17:56.709Z,64.94
2023-02-17T18:20:24.891Z,65.20
2023-02-17T18:22:52.933Z,65.89
2023-02-17T18:25:21.537Z,66.47
2023-02-17T18:27:49.885Z,66.74
2023-02-17T18:30:19.233Z,66.77
2023-02-17T18:32:47.612Z,65.45
2023-02-17T18:35:16.284Z,64.27
2023-02-17T18:37:45.471Z,65.80
2023-02-17T18:40:15.192Z,66.65
2023-02-17T18:42:46.717Z,66.82
2023-02-17T18:45:15.763Z,67.03
2023-02-17T18:47:44.019Z,66.90
2023-02-17T18:50:12.596Z,64.37
2023-02-17T18:52:41.286Z,62.72
2023-02-17T18:55:09.767Z,65.04
2023-02-17T18:57:37.734Z,67.53
2023-02-17T19:00:09.387Z,67.74
2023-02-17T19:02:38.070Z,66.26
2023-02-17T19:05:08.092Z,65.79
2023-02-17T19:07:36.292Z,68.47
2023-02-17T19:10:05.148Z,69.15
2023-02-17T19:12:34.272Z,69.40
2023-02-17T19:15:02.387Z,69.38
2023-02-17T19:17:30.389Z,70.13
2023-02-17T19:19:58.691Z,69.64
2023-02-17T19:22:26.664Z,68.76
2023-02-17T19:24:54.930Z,70.13
2023-02-17T19:27:22.984Z,71.21
2023-02-17T19:29:50.949Z,71.05
2023-02-17T19:32:18.927Z,68.52
2023-02-17T19:34:46.893Z,69.16
2023-02-17T19:37:15.369Z,71.05
2023-02-17T19:39:43.207Z,71.18
2023-02-17T19:42:13.576Z,71.08
2023-02-17T19:44:41.430Z,71.97
2023-02-17T19:47:09.506Z,72.37
2023-02-17T19:49:37.402Z,72.32
2023-02-17T19:52:06.340Z,72.07
2023-02-17T19:54:37.176Z,72.51
2023-02-17T19:57:05.169Z,72.75
2023-02-17T19:59:33.890Z,72.87
2023-02-17T20:02:01.933Z,73.07
2023-02-17T20:04:29.904Z,73.10
2023-02-17T20:06:58.717Z,72.72
2023-02-17T20:09:26.675Z,72.75
2023-02-17T20:11:54.783Z,72.92
2023-02-17T20:14:22.861Z,72.71
2023-02-17T20:16:53.341Z,71.24
2023-02-17T20:19:21.713Z,72.03
2023-02-17T20:21:49.620Z,72.77
2023-02-17T20:24:17.661Z,73.02
2023-02-17T20:26:46.650Z,73.31
2023-02-17T20:29:14.852Z,73.04
2023-02-17T20:31:43.192Z,73.33
2023-02-17T20:34:20.896Z,73.67
2023-02-17T20:36:48.730Z,74.10
2023-02-17T20:39:16.730Z,74.09
2023-02-17T20:41:44.592Z,74.07
2023-02-17T20:44:12.779Z,74.88
2023-02-17T20:46:42.639Z,74.87
2023-02-17T20:49:11.197Z,74.40
2023-02-17T20:51:39.133Z,74.13
2023-02-17T20:54:07.130Z,74.19
2023-02-17T20:56:37.422Z,74.33
2023-02-17T20:59:06.320Z,74.11
2023-02-17T21:01:34.653Z,74.20
2023-02-17T21:04:02.906Z,73.98
2023-02-17T21:06:32.420Z,72.08
2023-02-17T21:09:01.884Z,72.10
2023-02-17T21:11:30.391Z,74.31
2023-02-17T21:13:58.297Z,73.91
2023-02-17T21:16:27.134Z,74.09
2023-02-17T21:18:55.019Z,74.26
2023-02-17T21:21:22.976Z,74.05
2023-02-17T21:23:51.198Z,73.53
2023-02-17T21:26:19.308Z,73.47
2023-02-17T21:28:47.384Z,73.39
2023-02-17T21:31:16.211Z,73.51
2023-02-17T21:33:44.338Z,72.70
2023-02-17T21:36:13.663Z,72.67
2023-02-17T21:38:41.638Z,72.53
2023-02-17T21:41:14.800Z,73.20
2023-02-17T21:44:01.205Z,73.57
2023-02-17T21:46:30.376Z,73.72
2023-02-17T21:48:59.078Z,73.78
2023-02-17T21:51:27.786Z,73.68
2023-02-17T21:53:56.338Z,73.91
2023-02-17T21:56:24.534Z,73.74
2023-02-17T21:58:53.662Z,73.86
2023-02-17T22:01:23.516Z,73.96
2023-02-17T22:03:51.950Z,74.12
2023-02-17T22:06:24.713Z,74.20
2023-02-17T22:08:53.174Z,74.28
2023-02-17T22:11:23.096Z,74.16
2023-02-17T22:13:54.134Z,74.24
2023-02-17T22:16:21.991Z,74.50
2023-02-17T22:18:50.079Z,73.98
2023-02-17T22:21:18.153Z,73.96
2023-02-17T22:23:46.252Z,74.56
2023-02-17T22:26:22.175Z,74.65
2023-02-17T22:28:50.459Z,74.63
2023-02-17T22:31:20.262Z,74.60
2023-02-17T22:33:48.855Z,74.82
2023-02-17T22:36:18.359Z,74.99
2023-02-17T22:38:46.333Z,74.03
2023-02-17T22:41:15.629Z,74.40
2023-02-17T22:43:44.629Z,74.79
2023-02-17T22:46:16.497Z,73.77
2023-02-17T22:48:45.369Z,74.27
2023-02-17T22:51:16.015Z,73.67
2023-02-17T22:53:44.379Z,73.94
2023-02-17T22:56:12.556Z,76.11
2023-02-17T22:58:40.930Z,76.42
2023-02-17T23:01:11.765Z,76.84
2023-02-17T23:03:39.989Z,77.37
2023-02-17T23:06:09.400Z,77.47
2023-02-17T23:08:38.257Z,76.80
2023-02-17T23:11:06.922Z,77.21
2023-02-17T23:13:35.309Z,77.24
2023-02-17T23:16:03.686Z,77.59
2023-02-17T23:18:32.481Z,77.80
2023-02-17T23:21:06.130Z,76.36
2023-02-17T23:23:34.351Z,76.96
2023-02-17T23:26:02.327Z,77.79
2023-02-17T23:28:31.018Z,77.91
2023-02-17T23:30:59.125Z,77.34
2023-02-17T23:33:27.358Z,77.70
2023-02-17T23:35:55.330Z,76.41
2023-02-17T23:38:23.312Z,73.60
2023-02-17T23:40:52.092Z,76.60
2023-02-17T23:43:20.163Z,77.89
2023-02-17T23:45:48.908Z,78.09
2023-02-17T23:48:17.083Z,77.66
2023-02-17T23:50:44.869Z,76.44
2023-02-17T23:53:12.654Z,76.31
2023-02-17T23:55:40.721Z,75.84
2023-02-17T23:58:08.584Z,77.96
